| time (UTC) | temp C | wind direction | speed KPH | gust KPH | rain 1hr cm | rain 24hr cm | rain mn cm | humidity % | barometer mb |
| 20260906195417 | 30 | 90 | 1.6 | 4.8 | 0.00 | 0.03 | 0.03 | 65 | 1016.7 |
| 20260906194417 | 30 | 135 | 3.2 | 4.8 | 0.00 | 0.03 | 0.03 | 65 | 1016.8 |
| 20260906193417 | 30 | 135 | 3.2 | 6.4 | 0.00 | 0.03 | 0.03 | 64 | 1016.8 |
| 20260906192437 | 30 | 113 | 6.4 | 12.9 | 0.00 | 0.03 | 0.03 | 65 | 1016.7 |
| 20260906191437 | 30 | 113 | 3.2 | 4.8 | 0.00 | 0.03 | 0.03 | 66 | 1016.8 |
| 20260906190417 | 30 | 113 | 3.2 | 3.2 | 0.00 | 0.03 | 0.03 | 66 | 1016.9 |
| 20260906185417 | 30 | 135 | 3.2 | 4.8 | 0.00 | 0.03 | 0.03 | 67 | 1017.0 |
| 20260906184417 | 29 | 113 | 6.4 | 9.7 | 0.00 | 0.03 | 0.03 | 67 | 1017.1 |
| 20260906183417 | 29 | 135 | 4.8 | 9.7 | 0.00 | 0.03 | 0.03 | 67 | 1017.3 |
| 20260906182417 | 29 | 135 | 8.0 | 12.9 | 0.00 | 0.03 | 0.03 | 68 | 1017.6 |
| 20260906181417 | 29 | 90 | 3.2 | 6.4 | 0.00 | 0.03 | 0.03 | 66 | 1017.5 |
| 20260906180417 | 29 | 113 | 4.8 | 9.7 | 0.00 | 0.03 | 0.03 | 67 | 1017.6 |
| 20260906175437 | 28 | 135 | 4.8 | 9.7 | 0.00 | 0.03 | 0.03 | 66 | 1017.5 |
| 20260906174416 | 28 | 113 | 1.6 | 3.2 | 0.00 | 0.03 | 0.03 | 67 | 1017.6 |
| 20260906173416 | 27 | 135 | 6.4 | 12.9 | 0.00 | 0.03 | 0.03 | 68 | 1017.3 |
| 20260906172417 | 27 | 0.0 | 3.2 | 0.00 | 0.03 | 0.03 | 71 | 1017.3 | |
| 20260906171416 | 27 | 135 | 3.2 | 6.4 | 0.00 | 0.03 | 0.03 | 71 | 1017.2 |
| 20260906170417 | 26 | 0.0 | 1.6 | 0.00 | 0.03 | 0.03 | 73 | 1017.2 | |
| 20260906165416 | 26 | 135 | 3.2 | 9.7 | 0.00 | 0.03 | 0.03 | 76 | 1017.1 |
| 20260906164436 | 25 | 135 | 3.2 | 8.0 | 0.00 | 0.03 | 0.03 | 77 | 1017.0 |
| 20260906163416 | 25 | 135 | 3.2 | 4.8 | 0.00 | 0.03 | 0.03 | 77 | 1016.7 |
| 20260906162416 | 25 | 113 | 4.8 | 8.0 | 0.00 | 0.03 | 0.03 | 78 | 1016.8 |
| 20260906161416 | 24 | 113 | 4.8 | 8.0 | 0.00 | 0.03 | 0.03 | 79 | 1016.8 |
| 20260906160416 | 24 | 135 | 3.2 | 6.4 | 0.00 | 0.03 | 0.03 | 80 | 1016.8 |
| 20260906155416 | 23 | 158 | 3.2 | 4.8 | 0.03 | 0.03 | 0.03 | 81 | 1016.7 |
| 20260906154416 | 23 | 135 | 6.4 | 9.7 | 0.03 | 0.03 | 0.03 | 82 | 1016.5 |
| 20260906153416 | 23 | 135 | 3.2 | 6.4 | 0.03 | 0.03 | 0.03 | 85 | 1016.7 |
| 20260906152516 | 22 | 135 | 4.8 | 11.3 | 0.03 | 0.03 | 0.03 | 86 | 1016.3 |
| 20260906151416 | 22 | 0.0 | 1.6 | 0.03 | 0.03 | 0.03 | 86 | 1016.7 | |
| 20260906150416 | 22 | 135 | 3.2 | 6.4 | 0.03 | 0.03 | 0.03 | 84 | 1016.9 |
| 20260906145436 | 23 | 158 | 8.0 | 12.9 | 0.00 | 0.00 | 0.00 | 80 | 1016.9 |
| 20260906144416 | 23 | 135 | 4.8 | 9.7 | 0.00 | 0.00 | 0.00 | 77 | 1017.1 |
| 20260906143436 | 23 | 113 | 1.6 | 1.6 | 0.00 | 0.00 | 0.00 | 77 | 1017.3 |
| 20260906142436 | 23 | 158 | 4.8 | 8.0 | 0.00 | 0.00 | 0.00 | 79 | 1017.6 |
| 20260906141416 | 23 | 158 | 1.6 | 6.4 | 0.00 | 0.00 | 0.00 | 81 | 1017.8 |
| 20260906140436 | 23 | 270 | 6.4 | 11.3 | 0.00 | 0.00 | 0.00 | 81 | 1017.8 |
| 20260906135416 | 23 | 248 | 1.6 | 3.2 | 0.00 | 0.00 | 0.00 | 83 | 1017.8 |
| 20260906134436 | 22 | 270 | 4.8 | 8.0 | 0.00 | 0.00 | 0.00 | 84 | 1017.9 |
| 20260906133416 | 22 | 315 | 3.2 | 6.4 | 0.00 | 0.00 | 0.00 | 85 | 1018.0 |
| 20260906132416 | 22 | 270 | 3.2 | 9.7 | 0.00 | 0.00 | 0.00 | 84 | 1018.2 |
| 20260906131416 | 22 | 315 | 4.8 | 9.7 | 0.00 | 0.00 | 0.00 | 84 | 1018.0 |
| 20260906130416 | 22 | 293 | 3.2 | 4.8 | 0.00 | 0.00 | 0.00 | 83 | 1018.0 |
| 20260906125416 | 23 | 315 | 3.2 | 8.0 | 0.00 | 0.00 | 0.00 | 82 | 1018.2 |
| 20260906124436 | 23 | 315 | 8.0 | 12.9 | 0.00 | 0.00 | 0.00 | 81 | 1018.3 |
| 20260906123416 | 23 | 293 | 9.7 | 14.5 | 0.00 | 0.00 | 0.00 | 80 | 1018.4 |
| 20260906122416 | 23 | 315 | 8.0 | 12.9 | 0.00 | 0.00 | 0.00 | 79 | 1018.8 |
| 20260906121416 | 24 | 293 | 8.0 | 12.9 | 0.00 | 0.00 | 0.00 | 78 | 1018.8 |
| 20260906120416 | 24 | 293 | 14.5 | 22.5 | 0.00 | 0.00 | 0.00 | 79 | 1018.6 |
| 20260906115416 | 25 | 293 | 9.7 | 24.1 | 0.00 | 0.00 | 0.00 | 80 | 1018.3 |
| 20260906114416 | 25 | 315 | 9.7 | 14.5 | 0.00 | 0.00 | 0.00 | 82 | 1018.1 |
| 20260906113416 | 25 | 315 | 11.3 | 16.1 | 0.00 | 0.00 | 0.00 | 82 | 1017.8 |
| 20260906112416 | 25 | 315 | 8.0 | 11.3 | 0.00 | 0.00 | 0.00 | 82 | 1017.6 |
| 20260906111416 | 25 | 293 | 6.4 | 9.7 | 0.00 | 0.00 | 0.00 | 81 | 1017.5 |
| 20260906110416 | 25 | 0.0 | 1.6 | 0.00 | 0.00 | 0.00 | 80 | 1017.4 | |
| 20260906105416 | 25 | 293 | 4.8 | 9.7 | 0.00 | 0.00 | 0.00 | 79 | 1017.3 |
| 20260906104416 | 24 | 270 | 6.4 | 22.5 | 0.00 | 0.00 | 0.00 | 83 | 1017.7 |
| 20260906103416 | 24 | 180 | 3.2 | 8.0 | 0.00 | 0.00 | 0.00 | 81 | 1016.1 |
| 20260906102416 | 24 | 135 | 3.2 | 4.8 | 0.00 | 0.00 | 0.00 | 81 | 1015.9 |
| 20260906101416 | 25 | 158 | 1.6 | 3.2 | 0.00 | 0.00 | 0.00 | 80 | 1016.0 |
| 20260906100416 | 25 | 135 | 1.6 | 3.2 | 0.00 | 0.00 | 0.00 | 80 | 1016.0 |
| 20260906095416 | 25 | 135 | 4.8 | 6.4 | 0.00 | 0.00 | 0.00 | 80 | 1016.1 |
| 20260906094416 | 25 | 113 | 1.6 | 4.8 | 0.00 | 0.00 | 0.00 | 80 | 1016.0 |
| 20260906093416 | 25 | 158 | 1.6 | 3.2 | 0.00 | 0.00 | 0.00 | 81 | 1016.0 |
| 20260906092416 | 25 | 180 | 3.2 | 6.4 | 0.00 | 0.00 | 0.00 | 81 | 1016.0 |
| 20260906091415 | 25 | 135 | 1.6 | 3.2 | 0.00 | 0.00 | 0.00 | 80 | 1015.7 |
| 20260906090415 | 25 | 113 | 3.2 | 4.8 | 0.00 | 0.00 | 0.00 | 80 | 1015.7 |
| 20260906085415 | 25 | 158 | 1.6 | 3.2 | 0.00 | 0.00 | 0.00 | 80 | 1015.8 |
| 20260906084416 | 25 | 113 | 6.4 | 9.7 | 0.00 | 0.00 | 0.00 | 80 | 1015.9 |
| 20260906083415 | 25 | 135 | 1.6 | 3.2 | 0.00 | 0.00 | 0.00 | 80 | 1015.9 |
| 20260906082415 | 25 | 135 | 1.6 | 6.4 | 0.00 | 0.00 | 0.00 | 80 | 1016.1 |
| 20260906081415 | 25 | 135 | 1.6 | 3.2 | 0.00 | 0.00 | 0.00 | 79 | 1016.1 |
| 20260906080416 | 26 | 135 | 3.2 | 4.8 | 0.00 | 0.00 | 0.00 | 78 | 1016.0 |
| 20260906075415 | 26 | 135 | 1.6 | 4.8 | 0.00 | 0.00 | 0.00 | 77 | 1016.1 |
| 20260906074416 | 26 | 158 | 1.6 | 3.2 | 0.00 | 0.00 | 0.00 | 77 | 1016.1 |
| 20260906073415 | 26 | 135 | 4.8 | 6.4 | 0.00 | 0.00 | 0.00 | 76 | 1016.1 |
| 20260906072415 | 26 | 135 | 3.2 | 6.4 | 0.00 | 0.00 | 0.00 | 77 | 1016.0 |
| 20260906071415 | 26 | 135 | 1.6 | 3.2 | 0.00 | 0.00 | 0.00 | 77 | 1016.0 |
| 20260906070415 | 26 | 113 | 3.2 | 6.4 | 0.00 | 0.00 | 0.00 | 77 | 1015.9 |
| 20260906065435 | 26 | 113 | 4.8 | 8.0 | 0.00 | 0.00 | 0.00 | 77 | 1015.9 |
| 20260906064415 | 26 | 135 | 6.4 | 12.9 | 0.00 | 0.00 | 0.00 | 77 | 1015.9 |
| 20260906063415 | 26 | 135 | 3.2 | 4.8 | 0.00 | 0.00 | 0.00 | 78 | 1015.9 |
| 20260906062415 | 26 | 135 | 6.4 | 8.0 | 0.00 | 0.00 | 0.00 | 78 | 1015.5 |
| 20260906061415 | 26 | 135 | 4.8 | 8.0 | 0.00 | 0.00 | 0.00 | 78 | 1015.6 |
| 20260906060415 | 26 | 135 | 3.2 | 8.0 | 0.00 | 0.00 | 0.00 | 78 | 1015.7 |
| 20260906055415 | 26 | 135 | 4.8 | 6.4 | 0.00 | 0.00 | 0.00 | 78 | 1016.0 |
| 20260906054415 | 27 | 135 | 3.2 | 6.4 | 0.00 | 0.00 | 0.00 | 78 | 1016.0 |
| 20260906053417 | 27 | 135 | 4.8 | 9.7 | 0.00 | 0.00 | 0.00 | 77 | 1016.1 |
| 20260906052437 | 27 | 135 | 4.8 | 6.4 | 0.00 | 0.00 | 0.00 | 76 | 1016.0 |
| 20260906051417 | 27 | 135 | 3.2 | 4.8 | 0.00 | 0.00 | 0.00 | 76 | 1016.1 |
| 20260906050417 | 27 | 135 | 3.2 | 4.8 | 0.00 | 0.00 | 0.00 | 76 | 1016.1 |
| 20260906045416 | 27 | 113 | 1.6 | 4.8 | 0.00 | 0.00 | 0.00 | 77 | 1016.0 |
| 20260906044416 | 27 | 135 | 4.8 | 8.0 | 0.00 | 0.00 | 0.00 | 77 | 1016.1 |
| 20260906043436 | 27 | 135 | 4.8 | 6.4 | 0.00 | 0.00 | 0.00 | 77 | 1016.0 |
| 20260906042416 | 27 | 135 | 6.4 | 11.3 | 0.00 | 0.00 | 0.00 | 77 | 1016.0 |
| 20260906041436 | 28 | 135 | 4.8 | 9.7 | 0.00 | 0.00 | 0.00 | 76 | 1016.0 |
| 20260906040416 | 28 | 135 | 4.8 | 12.9 | 0.00 | 0.00 | 0.00 | 76 | 1016.1 |
| 20260906035416 | 28 | 135 | 4.8 | 9.7 | 0.00 | 0.00 | 0.00 | 75 | 1016.0 |
| 20260906034416 | 28 | 135 | 6.4 | 9.7 | 0.00 | 0.00 | 0.00 | 74 | 1015.8 |
| 20260906033416 | 28 | 135 | 4.8 | 11.3 | 0.00 | 0.00 | 0.00 | 74 | 1015.9 |
| 20260906032416 | 28 | 135 | 3.2 | 6.4 | 0.00 | 0.00 | 0.00 | 74 | 1015.7 |
| 20260906031416 | 29 | 135 | 3.2 | 8.0 | 0.00 | 0.00 | 0.00 | 73 | 1015.7 |
| 20260906030416 | 29 | 135 | 1.6 | 6.4 | 0.00 | 0.00 | 0.00 | 73 | 1015.5 |
| 20260906025416 | 29 | 135 | 3.2 | 8.0 | 0.00 | 0.00 | 0.00 | 73 | 1015.2 |
| 20260906024416 | 29 | 135 | 6.4 | 9.7 | 0.00 | 0.00 | 0.00 | 74 | 1015.0 |
| 20260906023416 | 29 | 158 | 1.6 | 4.8 | 0.00 | 0.00 | 0.00 | 75 | 1014.8 |
| 20260906022416 | 30 | 135 | 3.2 | 4.8 | 0.00 | 0.00 | 0.00 | 74 | 1014.8 |
| 20260906021416 | 30 | 135 | 3.2 | 8.0 | 0.00 | 0.00 | 0.00 | 74 | 1014.5 |
| 20260906020436 | 30 | 135 | 3.2 | 6.4 | 0.00 | 0.00 | 0.00 | 73 | 1014.6 |
| 20260906015436 | 30 | 135 | 4.8 | 11.3 | 0.00 | 0.00 | 0.00 | 72 | 1014.4 |
| 20260906014436 | 30 | 135 | 3.2 | 4.8 | 0.00 | 0.00 | 0.00 | 72 | 1014.2 |
| 20260906013416 | 30 | 135 | 1.6 | 3.2 | 0.00 | 0.00 | 0.00 | 72 | 1014.2 |
| 20260906012416 | 31 | 0.0 | 0.0 | 0.00 | 0.00 | 0.00 | 71 | 1014.1 | |
| 20260906011416 | 31 | 135 | 1.6 | 4.8 | 0.00 | 0.00 | 0.00 | 70 | 1014.0 |
| 20260906010415 | 31 | 0.0 | 1.6 | 0.00 | 0.00 | 0.00 | 69 | 1014.0 | |
| 20260906005415 | 31 | 0.0 | 3.2 | 0.00 | 0.00 | 0.00 | 67 | 1013.9 | |
| 20260906004416 | 32 | 135 | 1.6 | 4.8 | 0.00 | 0.00 | 0.00 | 66 | 1014.1 |
| 20260906003436 | 32 | 135 | 3.2 | 4.8 | 0.00 | 0.00 | 0.00 | 65 | 1014.1 |
| 20260906002415 | 33 | 135 | 4.8 | 6.4 | 0.00 | 0.00 | 0.00 | 64 | 1014.1 |
| 20260906001415 | 33 | 135 | 1.6 | 3.2 | 0.00 | 0.00 | 0.00 | 63 | 1014.1 |
| 20260906000456 | 33 | 158 | 3.2 | 6.4 | 0.00 | 0.00 | 0.00 | 62 | 1014.0 |
| 20260905235415 | 33 | 135 | 1.6 | 3.2 | 0.00 | 0.00 | 0.00 | 61 | 1014.0 |
| 20260905234416 | 33 | 158 | 3.2 | 8.0 | 0.00 | 0.00 | 0.00 | 61 | 1014.0 |
| 20260905233415 | 33 | 135 | 8.0 | 14.5 | 0.00 | 0.00 | 0.00 | 60 | 1014.0 |
| 20260905232415 | 33 | 135 | 6.4 | 11.3 | 0.00 | 0.00 | 0.00 | 60 | 1014.0 |
| 20260905231415 | 34 | 113 | 6.4 | 11.3 | 0.00 | 0.00 | 0.00 | 60 | 1014.1 |
| 20260905230415 | 34 | 158 | 6.4 | 11.3 | 0.00 | 0.00 | 0.00 | 60 | 1014.1 |
| 20260905225415 | 34 | 113 | 6.4 | 12.9 | 0.00 | 0.00 | 0.00 | 62 | 1014.0 |
| 20260905224456 | 34 | 158 | 6.4 | 11.3 | 0.00 | 0.00 | 0.00 | 62 | 1014.2 |
| 20260905223415 | 34 | 135 | 9.7 | 14.5 | 0.00 | 0.00 | 0.00 | 62 | 1014.2 |
| 20260905222456 | 34 | 135 | 4.8 | 9.7 | 0.00 | 0.00 | 0.00 | 63 | 1014.4 |
| 20260905221415 | 33 | 158 | 6.4 | 12.9 | 0.00 | 0.00 | 0.00 | 64 | 1014.4 |
| 20260905220415 | 33 | 135 | 8.0 | 16.1 | 0.00 | 0.00 | 0.00 | 65 | 1014.4 |
| 20260905215415 | 33 | 158 | 8.0 | 12.9 | 0.00 | 0.00 | 0.00 | 66 | 1014.4 |
| 20260905214415 | 33 | 135 | 11.3 | 16.1 | 0.00 | 0.00 | 0.00 | 66 | 1014.5 |
| 20260905213435 | 33 | 135 | 4.8 | 11.3 | 0.00 | 0.00 | 0.00 | 67 | 1014.7 |
| 20260905212415 | 33 | 135 | 11.3 | 19.3 | 0.00 | 0.00 | 0.00 | 66 | 1014.9 |
| 20260905211417 | 33 | 90 | 12.9 | 22.5 | 0.00 | 0.00 | 0.00 | 66 | 1015.2 |
| 20260905210417 | 32 | 113 | 9.7 | 17.7 | 0.00 | 0.00 | 0.00 | 66 | 1015.4 |
| 20260905205417 | 32 | 113 | 12.9 | 22.5 | 0.00 | 0.00 | 0.00 | 66 | 1015.5 |
| 20260905204437 | 33 | 113 | 8.0 | 14.5 | 0.00 | 0.00 | 0.00 | 64 | 1015.7 |
| 20260905203417 | 32 | 113 | 9.7 | 17.7 | 0.00 | 0.00 | 0.00 | 66 | 1015.7 |
| 20260905202417 | 32 | 135 | 12.9 | 22.5 | 0.00 | 0.00 | 0.00 | 66 | 1015.7 |
| 20260905201417 | 32 | 113 | 9.7 | 14.5 | 0.00 | 0.00 | 0.00 | 68 | 1015.8 |
| 20260905200437 | 32 | 135 | 9.7 | 19.3 | 0.00 | 0.00 | 0.00 | 67 | 1015.9 |